createdAt,value
2023-04-22T00:01:25.231Z,99.90
2023-04-22T00:03:52.289Z,99.90
2023-04-22T00:06:19.118Z,99.90
2023-04-22T00:08:45.825Z,99.90
2023-04-22T00:11:12.624Z,99.90
2023-04-22T00:13:43.542Z,99.90
2023-04-22T00:16:10.742Z,99.90
2023-04-22T00:18:37.469Z,99.90
2023-04-22T00:21:04.456Z,99.90
2023-04-22T00:23:31.563Z,99.90
2023-04-22T00:25:58.285Z,99.90
2023-04-22T00:28:25.044Z,99.90
2023-04-22T00:30:52.050Z,99.90
2023-04-22T00:33:18.879Z,99.90
2023-04-22T00:35:48.734Z,99.90
2023-04-22T00:38:15.548Z,99.90
2023-04-22T00:40:42.299Z,99.90
2023-04-22T00:43:09.247Z,99.90
2023-04-22T00:45:36.916Z,99.90
2023-04-22T00:48:03.726Z,99.90
2023-04-22T00:50:30.644Z,99.90
2023-04-22T00:52:57.443Z,99.90
2023-04-22T00:55:24.589Z,99.90
2023-04-22T00:57:51.873Z,99.90
2023-04-22T01:00:20.154Z,99.90
2023-04-22T01:02:47.798Z,99.90
2023-04-22T01:05:14.733Z,99.90
2023-04-22T01:07:41.483Z,99.90
2023-04-22T01:10:08.468Z,99.90
2023-04-22T01:12:35.256Z,99.90
2023-04-22T01:15:04.509Z,99.90
2023-04-22T01:17:34.499Z,99.90
2023-04-22T01:20:03.940Z,99.90
2023-04-22T01:22:35.321Z,99.90
2023-04-22T01:25:02.735Z,99.90
2023-04-22T01:27:29.541Z,99.90
2023-04-22T01:29:56.302Z,99.90
2023-04-22T01:32:23.556Z,99.90
2023-04-22T01:34:52.138Z,99.90
2023-04-22T01:37:18.873Z,99.90
2023-04-22T01:39:46.822Z,99.90
2023-04-22T01:42:14.137Z,99.90
2023-04-22T01:44:40.989Z,99.90
2023-04-22T01:47:08.073Z,99.90
2023-04-22T01:49:35.409Z,99.90
2023-04-22T01:52:02.186Z,99.90
2023-04-22T01:54:28.963Z,99.90
2023-04-22T01:56:56.032Z,99.90
2023-04-22T01:59:22.782Z,99.90
2023-04-22T02:01:50.409Z,99.90
2023-04-22T02:04:18.205Z,99.90
2023-04-22T02:06:44.922Z,99.90
2023-04-22T02:09:11.668Z,99.90
2023-04-22T02:11:38.785Z,99.90
2023-04-22T02:14:05.649Z,99.90
2023-04-22T02:16:32.450Z,99.90
2023-04-22T02:19:00.174Z,99.90
2023-04-22T02:21:28.778Z,99.90
2023-04-22T02:23:55.579Z,99.90
2023-04-22T02:26:23.675Z,99.90
2023-04-22T02:28:50.414Z,99.90
2023-04-22T02:31:17.289Z,99.90
2023-04-22T02:33:44.306Z,99.90
2023-04-22T02:36:11.452Z,99.90
2023-04-22T02:38:38.684Z,99.90
2023-04-22T02:41:05.476Z,99.90
2023-04-22T02:43:32.293Z,99.90
2023-04-22T02:45:59.067Z,99.90
2023-04-22T02:48:26.155Z,99.90
2023-04-22T02:50:53.073Z,99.90
2023-04-22T02:53:19.789Z,99.90
2023-04-22T02:55:46.492Z,99.90
2023-04-22T02:58:13.189Z,99.90
2023-04-22T03:00:40.144Z,99.90
2023-04-22T03:03:07.293Z,99.90
2023-04-22T03:05:34.708Z,99.90
2023-04-22T03:08:02.635Z,99.90
2023-04-22T03:10:30.139Z,99.90
2023-04-22T03:12:56.869Z,99.90
2023-04-22T03:15:23.680Z,99.90
2023-04-22T03:17:50.493Z,99.90
2023-04-22T03:20:20.122Z,99.90
2023-04-22T03:22:47.525Z,99.90
2023-04-22T03:25:15.949Z,99.90
2023-04-22T03:27:48.980Z,99.90
2023-04-22T03:30:15.759Z,99.90
2023-04-22T03:32:43.009Z,99.90
2023-04-22T03:35:22.292Z,99.90
2023-04-22T03:37:51.015Z,99.90
2023-04-22T03:40:22.772Z,99.90
2023-04-22T03:42:49.695Z,99.90
2023-04-22T03:45:19.127Z,99.90
2023-04-22T03:47:53.269Z,99.90
2023-04-22T03:50:25.842Z,99.90
2023-04-22T03:52:54.066Z,99.90
2023-04-22T03:55:21.578Z,99.90
2023-04-22T03:57:51.322Z,99.90
2023-04-22T04:00:18.135Z,99.90
2023-04-22T04:02:51.698Z,99.90
2023-04-22T04:05:23.433Z,99.90
2023-04-22T04:07:50.332Z,99.90
2023-04-22T04:10:17.019Z,99.90
2023-04-22T04:12:43.732Z,99.90
2023-04-22T04:15:11.930Z,99.90
2023-04-22T04:17:39.722Z,99.90
2023-04-22T04:20:07.425Z,99.90
2023-04-22T04:22:36.071Z,99.90
2023-04-22T04:25:03.531Z,99.90
2023-04-22T04:27:35.314Z,99.90
2023-04-22T04:30:03.674Z,99.90
2023-04-22T04:32:38.969Z,99.90
2023-04-22T04:35:08.892Z,99.90
2023-04-22T04:37:40.377Z,99.90
2023-04-22T04:40:10.469Z,99.90
2023-04-22T04:42:46.120Z,99.90
2023-04-22T04:45:19.893Z,99.90
2023-04-22T04:47:50.566Z,99.90
2023-04-22T04:50:22.529Z,99.90
2023-04-22T04:52:49.886Z,99.90
2023-04-22T04:55:20.294Z,99.90
2023-04-22T04:57:47.533Z,99.90
2023-04-22T05:00:14.835Z,99.90
2023-04-22T05:02:42.081Z,99.90
2023-04-22T05:05:09.431Z,99.90
2023-04-22T05:07:37.433Z,99.90
2023-04-22T05:10:06.727Z,99.90
2023-04-22T05:12:33.721Z,99.90
2023-04-22T05:15:00.895Z,99.90
2023-04-22T05:17:28.257Z,99.90
2023-04-22T05:19:55.191Z,99.90
2023-04-22T05:22:21.995Z,99.90
2023-04-22T05:24:49.537Z,99.90
2023-04-22T05:27:16.386Z,99.90
2023-04-22T05:29:43.392Z,99.90
2023-04-22T05:32:11.506Z,99.90
2023-04-22T05:34:39.202Z,99.90
2023-04-22T05:37:06.304Z,99.90
2023-04-22T05:39:36.089Z,99.90
2023-04-22T05:42:08.926Z,99.90
2023-04-22T05:44:35.675Z,99.90
2023-04-22T05:47:02.386Z,99.90
2023-04-22T05:49:29.147Z,99.90
2023-04-22T05:52:24.923Z,99.90
2023-04-22T05:55:04.522Z,99.90
2023-04-22T05:57:31.652Z,99.90
2023-04-22T06:00:00.339Z,99.90
2023-04-22T06:02:27.570Z,99.90
2023-04-22T06:04:54.758Z,99.90
2023-04-22T06:07:22.244Z,99.90
2023-04-22T06:09:48.985Z,99.90
2023-04-22T06:12:15.785Z,99.90
2023-04-22T06:14:42.759Z,99.90
2023-04-22T06:17:09.665Z,99.90
2023-04-22T06:19:37.087Z,99.90
2023-04-22T06:22:04.234Z,99.90
2023-04-22T06:24:31.290Z,99.90
2023-04-22T06:26:58.245Z,99.90
2023-04-22T06:29:27.196Z,99.90
2023-04-22T06:31:54.920Z,99.90
2023-04-22T06:34:23.582Z,99.90
2023-04-22T06:36:51.303Z,99.90
2023-04-22T06:39:18.031Z,99.90
2023-04-22T06:42:02.231Z,99.90
2023-04-22T06:44:55.083Z,99.90
2023-04-22T06:47:40.493Z,99.90
2023-04-22T06:50:14.216Z,99.90
2023-04-22T06:52:57.224Z,99.90
2023-04-22T06:55:24.411Z,99.90
2023-04-22T06:57:51.566Z,99.90
2023-04-22T07:00:18.511Z,99.90
2023-04-22T07:02:46.654Z,99.90
2023-04-22T07:05:13.461Z,99.90
2023-04-22T07:07:40.343Z,99.90
2023-04-22T07:10:10.720Z,99.90
2023-04-22T07:12:44.759Z,99.90
2023-04-22T07:15:11.577Z,99.90
2023-04-22T07:17:38.334Z,99.90
2023-04-22T07:20:05.450Z,99.90
2023-04-22T07:22:32.152Z,99.90
2023-04-22T07:24:58.835Z,99.90
2023-04-22T07:27:25.670Z,99.90
2023-04-22T07:29:52.368Z,99.90
2023-04-22T07:32:19.221Z,99.90
2023-04-22T07:34:47.812Z,99.90
2023-04-22T07:37:14.500Z,99.90
2023-04-22T07:39:41.553Z,99.90
2023-04-22T07:42:08.508Z,99.90
2023-04-22T07:44:36.109Z,99.90
2023-04-22T07:47:04.837Z,99.90
2023-04-22T07:49:31.607Z,99.90
2023-04-22T07:51:58.327Z,99.90
2023-04-22T07:54:25.064Z,99.90
2023-04-22T07:56:51.840Z,99.90
2023-04-22T07:59:18.588Z,99.90
2023-04-22T08:01:46.578Z,99.90
2023-04-22T08:04:13.555Z,99.90
2023-04-22T08:06:40.657Z,99.90
2023-04-22T08:09:07.413Z,99.90
2023-04-22T08:11:34.299Z,99.90
2023-04-22T08:14:01.003Z,99.90
2023-04-22T08:16:27.738Z,99.90
2023-04-22T08:18:56.243Z,99.90
2023-04-22T08:21:23.018Z,99.90
2023-04-22T08:23:50.070Z,99.90
2023-04-22T08:26:16.954Z,99.90
2023-04-22T08:28:43.774Z,99.90
2023-04-22T08:31:12.741Z,99.90
2023-04-22T08:33:40.404Z,99.90
2023-04-22T08:36:08.622Z,99.90
2023-04-22T08:38:35.325Z,99.90
2023-04-22T08:41:02.685Z,99.90
2023-04-22T08:43:29.397Z,99.90
2023-04-22T08:45:56.301Z,99.90
2023-04-22T08:48:23.353Z,99.90
2023-04-22T08:50:50.223Z,99.90
2023-04-22T08:53:16.920Z,99.90
2023-04-22T08:55:44.333Z,99.90
2023-04-22T08:58:12.376Z,99.90
2023-04-22T09:00:40.209Z,99.90
2023-04-22T09:03:07.747Z,99.90
2023-04-22T09:05:35.181Z,99.90
2023-04-22T09:08:03.038Z,99.90
2023-04-22T09:10:31.095Z,99.90
2023-04-22T09:12:59.573Z,99.90
2023-04-22T09:15:27.704Z,99.90
2023-04-22T09:17:54.544Z,99.90
2023-04-22T09:20:26.069Z,99.90
2023-04-22T09:22:53.009Z,99.90
2023-04-22T09:25:20.765Z,99.90
2023-04-22T09:27:54.942Z,99.90
2023-04-22T09:30:26.453Z,99.90
2023-04-22T09:32:57.042Z,99.90
2023-04-22T09:35:30.156Z,99.90
2023-04-22T09:37:57.618Z,99.90
2023-04-22T09:40:24.799Z,99.90
2023-04-22T09:42:52.671Z,99.90
2023-04-22T09:45:27.217Z,99.90
2023-04-22T09:47:55.066Z,99.90
2023-04-22T09:50:24.149Z,99.90
2023-04-22T09:52:55.277Z,99.90
2023-04-22T09:55:23.202Z,99.90
2023-04-22T09:57:54.141Z,99.90
2023-04-22T10:00:21.661Z,99.90
2023-04-22T10:02:48.544Z,99.90
2023-04-22T10:05:15.527Z,99.90
2023-04-22T10:07:43.449Z,99.90
2023-04-22T10:10:10.691Z,99.90
2023-04-22T10:12:37.589Z,99.90
2023-04-22T10:15:04.915Z,99.90
2023-04-22T10:17:33.121Z,99.90
2023-04-22T10:20:04.497Z,99.90
2023-04-22T10:22:32.773Z,99.90
2023-04-22T10:24:59.622Z,99.90
2023-04-22T10:27:26.396Z,99.90
2023-04-22T10:29:53.108Z,99.90
2023-04-22T10:32:19.900Z,99.90
2023-04-22T10:34:47.092Z,99.90
2023-04-22T10:37:14.615Z,99.90
2023-04-22T10:39:42.675Z,99.90
2023-04-22T10:42:11.509Z,99.90
2023-04-22T10:44:52.000Z,99.90
2023-04-22T10:47:32.370Z,99.90
2023-04-22T10:50:14.599Z,99.90
2023-04-22T10:52:42.267Z,99.90
2023-04-22T10:55:09.355Z,99.90
2023-04-22T10:57:41.458Z,99.90
2023-04-22T11:00:17.369Z,99.90
2023-04-22T11:02:45.141Z,99.90
2023-04-22T11:05:19.081Z,99.90
2023-04-22T11:07:47.023Z,99.90
2023-04-22T11:10:29.960Z,99.90
2023-04-22T11:12:57.426Z,99.90
2023-04-22T11:15:24.363Z,99.90
2023-04-22T11:17:52.003Z,99.90
2023-04-22T11:20:19.556Z,99.90
2023-04-22T11:22:47.282Z,99.90
2023-04-22T11:25:14.613Z,99.90
2023-04-22T11:27:43.619Z,99.90
2023-04-22T11:30:15.052Z,99.90
2023-04-22T11:32:43.551Z,99.90
2023-04-22T11:35:11.516Z,99.90
2023-04-22T11:37:42.660Z,99.90
2023-04-22T11:40:27.797Z,99.90
2023-04-22T11:42:57.448Z,99.90
2023-04-22T11:45:24.603Z,99.90
2023-04-22T11:47:51.758Z,99.90
2023-04-22T11:50:22.007Z,99.90
2023-04-22T11:52:53.143Z,99.90
2023-04-22T11:55:19.958Z,99.90
2023-04-22T11:57:51.633Z,99.90
2023-04-22T12:00:18.714Z,99.90
2023-04-22T12:02:55.045Z,99.90
2023-04-22T12:05:31.871Z,99.90
2023-04-22T12:08:00.318Z,99.90
2023-04-22T12:10:27.310Z,99.90
2023-04-22T12:12:54.447Z,99.90
2023-04-22T12:15:21.164Z,99.90
2023-04-22T12:17:50.326Z,99.90
2023-04-22T12:20:17.088Z,99.90
2023-04-22T12:22:44.033Z,99.90
2023-04-22T12:25:11.049Z,99.90
2023-04-22T12:27:38.014Z,99.90
2023-04-22T12:30:05.240Z,99.90
2023-04-22T12:32:31.946Z,99.60
2023-04-22T12:34:58.711Z,99.80
2023-04-22T12:37:25.492Z,99.60
2023-04-22T12:39:52.318Z,99.50
2023-04-22T12:42:19.070Z,99.00
2023-04-22T12:44:46.887Z,99.80
2023-04-22T12:47:13.730Z,98.50
2023-04-22T12:49:44.806Z,98.40
2023-04-22T12:52:13.327Z,98.30
2023-04-22T12:54:42.033Z,98.70
2023-04-22T12:57:09.075Z,99.00
2023-04-22T12:59:35.947Z,97.90
2023-04-22T13:02:02.916Z,98.20
2023-04-22T13:04:29.727Z,97.80
2023-04-22T13:06:56.556Z,98.20
2023-04-22T13:09:26.986Z,99.10
2023-04-22T13:11:53.902Z,97.90
2023-04-22T13:14:21.457Z,97.90
2023-04-22T13:16:48.201Z,97.90
2023-04-22T13:19:15.341Z,97.70
2023-04-22T13:21:42.263Z,97.70
2023-04-22T13:24:09.190Z,97.60
2023-04-22T13:26:36.715Z,97.20
2023-04-22T13:29:03.563Z,96.90
2023-04-22T13:31:30.630Z,96.50
2023-04-22T13:33:57.594Z,97.00
2023-04-22T13:36:24.363Z,97.40
2023-04-22T13:38:51.276Z,96.90
2023-04-22T13:41:18.591Z,95.60
2023-04-22T13:43:45.373Z,96.70
2023-04-22T13:46:12.239Z,95.60
2023-04-22T13:48:39.059Z,96.30
2023-04-22T13:51:05.836Z,96.20
2023-04-22T13:53:34.524Z,95.80
2023-04-22T13:56:01.390Z,95.60
2023-04-22T13:58:28.094Z,95.90
2023-04-22T14:00:58.637Z,96.10
2023-04-22T14:03:25.652Z,95.90
2023-04-22T14:05:52.908Z,96.10
2023-04-22T14:08:19.745Z,96.40
2023-04-22T14:10:46.734Z,96.40
2023-04-22T14:13:13.421Z,95.80
2023-04-22T14:15:40.196Z,96.00
2023-04-22T14:18:06.991Z,96.00
2023-04-22T14:20:33.942Z,95.80
2023-04-22T14:23:01.070Z,96.00
2023-04-22T14:25:27.879Z,96.00
2023-04-22T14:27:54.584Z,95.80
2023-04-22T14:30:21.956Z,95.90
2023-04-22T14:32:50.348Z,95.80
2023-04-22T14:35:17.510Z,95.20
2023-04-22T14:37:45.066Z,95.40
2023-04-22T14:40:14.905Z,94.60
2023-04-22T14:42:41.689Z,95.10
2023-04-22T14:45:08.684Z,95.70
2023-04-22T14:47:35.428Z,96.10
2023-04-22T14:50:02.531Z,95.40
2023-04-22T14:52:29.297Z,95.40
2023-04-22T14:54:56.166Z,95.20
2023-04-22T14:57:22.972Z,95.30
2023-04-22T14:59:49.694Z,95.60
2023-04-22T15:02:16.875Z,95.90
2023-04-22T15:04:43.799Z,95.70
2023-04-22T15:07:10.673Z,95.70
2023-04-22T15:09:37.461Z,95.30
2023-04-22T15:12:07.341Z,95.70
2023-04-22T15:14:37.572Z,95.60
2023-04-22T15:17:05.081Z,95.30
2023-04-22T15:19:31.974Z,94.60
2023-04-22T15:21:58.744Z,94.70
2023-04-22T15:24:25.453Z,94.70
2023-04-22T15:26:52.876Z,94.60
2023-04-22T15:29:19.816Z,94.90
2023-04-22T15:31:46.932Z,94.90
2023-04-22T15:34:13.946Z,95.30
2023-04-22T15:36:40.916Z,95.20
2023-04-22T15:39:10.684Z,94.90
2023-04-22T15:41:37.431Z,94.80
2023-04-22T15:44:05.115Z,95.00
2023-04-22T15:46:33.096Z,94.80
2023-04-22T15:49:00.464Z,94.20
2023-04-22T15:51:27.499Z,94.40
2023-04-22T15:53:54.615Z,94.70
2023-04-22T15:56:21.369Z,94.10
2023-04-22T15:58:48.115Z,94.60
2023-04-22T16:01:19.350Z,95.20
2023-04-22T16:03:47.755Z,94.60
2023-04-22T16:06:14.567Z,95.10
2023-04-22T16:08:41.438Z,94.80
2023-04-22T16:11:08.474Z,95.20
2023-04-22T16:13:35.432Z,95.20
2023-04-22T16:16:02.128Z,94.10
2023-04-22T16:18:28.863Z,94.40
2023-04-22T16:20:56.027Z,93.30
2023-04-22T16:23:22.852Z,94.00
2023-04-22T16:25:50.187Z,93.50
2023-04-22T16:28:17.210Z,93.20
2023-04-22T16:30:44.026Z,93.80
2023-04-22T16:33:10.838Z,94.20
2023-04-22T16:35:37.666Z,93.60
2023-04-22T16:38:04.823Z,93.60
2023-04-22T16:40:31.681Z,94.00
2023-04-22T16:43:03.346Z,93.80
2023-04-22T16:45:30.178Z,94.10
2023-04-22T16:50:53.467Z,94.20
2023-04-22T16:53:20.326Z,93.90
2023-04-22T16:55:47.231Z,93.70
2023-04-22T16:58:13.984Z,94.00
2023-04-22T17:00:40.990Z,93.90
2023-04-22T17:03:07.934Z,94.40
2023-04-22T17:05:34.857Z,94.60
2023-04-22T17:08:02.056Z,94.70
2023-04-22T17:10:28.928Z,94.90
2023-04-22T17:12:55.965Z,94.90
2023-04-22T17:15:23.131Z,95.10
2023-04-22T17:17:49.985Z,94.70
2023-04-22T17:20:16.789Z,95.10
2023-04-22T17:22:43.996Z,94.80
2023-04-22T17:25:10.998Z,95.20
2023-04-22T17:27:37.764Z,95.40
2023-04-22T17:30:04.755Z,95.50
2023-04-22T17:32:31.785Z,95.20
2023-04-22T17:34:58.816Z,95.50
2023-04-22T17:37:25.684Z,95.50
2023-04-22T17:39:52.385Z,95.50
2023-04-22T17:42:19.321Z,95.70
2023-04-22T17:44:46.089Z,95.60
2023-04-22T17:47:12.913Z,95.40
2023-04-22T17:49:39.963Z,94.80
2023-04-22T17:52:07.044Z,95.70
2023-04-22T17:54:33.862Z,96.10
2023-04-22T17:57:01.089Z,96.40
2023-04-22T17:59:27.803Z,96.30
2023-04-22T18:01:54.604Z,96.40
2023-04-22T18:04:21.636Z,96.80
2023-04-22T18:06:48.372Z,96.40
2023-04-22T18:09:15.965Z,96.80
2023-04-22T18:11:42.714Z,96.80
2023-04-22T18:14:09.880Z,96.90
2023-04-22T18:16:36.685Z,96.80
2023-04-22T18:19:06.712Z,97.00
2023-04-22T18:21:33.925Z,97.20
2023-04-22T18:24:02.592Z,97.20
2023-04-22T18:26:29.670Z,97.20
2023-04-22T18:28:56.446Z,97.20
2023-04-22T18:31:23.429Z,97.30
2023-04-22T18:33:50.166Z,97.20
2023-04-22T18:36:17.191Z,97.70
2023-04-22T18:38:44.168Z,97.60
2023-04-22T18:41:12.945Z,97.90
2023-04-22T18:43:39.698Z,97.70
2023-04-22T18:46:06.634Z,98.10
2023-04-22T18:48:33.396Z,97.90
2023-04-22T18:51:00.240Z,98.00
2023-04-22T18:53:27.112Z,98.10
2023-04-22T18:55:54.110Z,98.20
2023-04-22T18:58:25.760Z,98.50
2023-04-22T19:00:52.974Z,98.60
2023-04-22T19:03:20.007Z,98.30
2023-04-22T19:05:46.896Z,98.60
2023-04-22T19:08:13.627Z,98.70
2023-04-22T19:10:40.342Z,98.10
2023-04-22T19:13:13.414Z,98.60
2023-04-22T19:15:45.721Z,98.60
2023-04-22T19:18:12.818Z,98.90
2023-04-22T19:20:39.620Z,99.10
2023-04-22T19:23:06.379Z,99.80
2023-04-22T19:25:34.177Z,99.60
2023-04-22T19:28:00.948Z,99.80
2023-04-22T19:30:27.927Z,99.70
2023-04-22T19:32:57.598Z,99.90
2023-04-22T19:35:24.874Z,99.90
2023-04-22T19:37:51.649Z,99.90
2023-04-22T19:40:19.566Z,99.90
2023-04-22T19:42:46.335Z,99.90
2023-04-22T19:45:13.052Z,99.90
2023-04-22T19:47:40.080Z,99.90
2023-04-22T19:50:07.843Z,99.90
2023-04-22T19:52:34.925Z,99.90
2023-04-22T19:55:09.115Z,99.90
2023-04-22T19:57:36.981Z,99.90
2023-04-22T20:00:06.882Z,99.90
2023-04-22T20:02:39.586Z,99.90
2023-04-22T20:05:06.646Z,99.90
2023-04-22T20:07:33.789Z,99.90
2023-04-22T20:10:02.291Z,99.90
2023-04-22T20:12:29.455Z,99.90
2023-04-22T20:15:02.765Z,99.90
2023-04-22T20:17:30.822Z,99.90
2023-04-22T20:20:01.688Z,99.90
2023-04-22T20:22:29.177Z,99.90
2023-04-22T20:25:04.077Z,99.90
2023-04-22T20:27:31.809Z,99.90
2023-04-22T20:29:59.214Z,99.90
2023-04-22T20:32:26.539Z,99.90
2023-04-22T20:34:53.825Z,99.90
2023-04-22T20:37:21.047Z,99.90
2023-04-22T20:39:51.413Z,99.90
2023-04-22T20:42:18.867Z,99.90
2023-04-22T20:44:45.833Z,99.90
2023-04-22T20:47:13.763Z,99.90
2023-04-22T20:49:41.977Z,99.90
2023-04-22T20:52:12.220Z,99.90
2023-04-22T20:54:39.634Z,99.90
2023-04-22T20:57:07.217Z,99.90
2023-04-22T20:59:34.661Z,99.90
2023-04-22T21:02:04.181Z,99.90
2023-04-22T21:04:31.662Z,99.90
2023-04-22T21:07:00.958Z,99.90
2023-04-22T21:09:27.815Z,99.90
2023-04-22T21:11:54.880Z,99.90
2023-04-22T21:14:24.164Z,99.90
2023-04-22T21:17:02.989Z,99.90
2023-04-22T21:19:32.332Z,99.90
2023-04-22T21:22:02.111Z,99.90
2023-04-22T21:24:31.058Z,99.90
2023-04-22T21:26:58.911Z,99.90
2023-04-22T21:29:25.884Z,99.90
2023-04-22T21:32:07.203Z,99.90
2023-04-22T21:34:35.994Z,99.90
2023-04-22T21:37:02.808Z,99.90
2023-04-22T21:39:29.804Z,99.90
2023-04-22T21:41:56.692Z,99.90
2023-04-22T21:44:23.710Z,99.90
2023-04-22T21:46:50.393Z,99.90
2023-04-22T21:49:17.157Z,99.90
2023-04-22T21:51:43.937Z,99.90
2023-04-22T21:54:10.846Z,99.90
2023-04-22T21:56:37.565Z,99.90
2023-04-22T21:59:04.343Z,99.90
2023-04-22T22:01:31.157Z,99.90
2023-04-22T22:03:58.177Z,99.90
2023-04-22T22:06:25.376Z,99.90
2023-04-22T22:08:53.230Z,99.90
2023-04-22T22:11:30.351Z,99.90
2023-04-22T22:13:58.850Z,99.90
2023-04-22T22:16:25.875Z,99.90
2023-04-22T22:18:52.827Z,99.90
2023-04-22T22:21:19.577Z,99.90
2023-04-22T22:23:46.462Z,99.90
2023-04-22T22:26:13.296Z,99.90
2023-04-22T22:28:40.244Z,99.90
2023-04-22T22:31:07.979Z,99.90
2023-04-22T22:33:34.976Z,99.90
2023-04-22T22:36:01.938Z,99.90
2023-04-22T22:38:28.644Z,99.90
2023-04-22T22:40:55.548Z,99.90
2023-04-22T22:43:22.271Z,99.90
2023-04-22T22:45:49.058Z,99.90
2023-04-22T22:48:16.159Z,99.90
2023-04-22T22:50:43.579Z,99.90
2023-04-22T22:53:11.311Z,99.90
2023-04-22T22:55:38.021Z,99.90
2023-04-22T22:58:04.723Z,99.90
2023-04-22T23:00:33.472Z,99.90
2023-04-22T23:03:06.154Z,99.90
2023-04-22T23:05:39.232Z,99.90
2023-04-22T23:08:07.267Z,99.90
2023-04-22T23:10:34.239Z,99.90
2023-04-22T23:13:02.463Z,99.90
2023-04-22T23:15:29.629Z,99.90
2023-04-22T23:17:56.732Z,99.90
2023-04-22T23:20:26.690Z,99.90
2023-04-22T23:22:54.544Z,99.90
2023-04-22T23:25:22.016Z,99.90
2023-04-22T23:30:31.083Z,99.90
2023-04-22T23:33:02.618Z,99.90
2023-04-22T23:35:30.147Z,99.90
2023-04-22T23:37:57.581Z,99.90
2023-04-22T23:40:24.332Z,99.90
2023-04-22T23:43:00.602Z,99.90
2023-04-22T23:45:27.394Z,99.90
2023-04-22T23:47:54.146Z,99.90
2023-04-22T23:50:20.968Z,99.90
2023-04-22T23:52:50.847Z,99.90
2023-04-22T23:55:28.234Z,99.90
2023-04-22T23:57:55.726Z,99.90
